sensor_id;sensor_type;location;lat;lon;timestamp;temperature;humidity
39103;DHT22;24847;48.218;16.414;2024-03-23T00:56:56;12.10;73.60
39103;DHT22;24847;48.218;16.414;2024-03-23T01:01:58;12.00;72.50
39103;DHT22;24847;48.218;16.414;2024-03-23T01:07:00;11.80;73.30
39103;DHT22;24847;48.218;16.414;2024-03-23T01:12:04;11.90;72.50
39103;DHT22;24847;48.218;16.414;2024-03-23T01:17:06;11.90;72.20
39103;DHT22;24847;48.218;16.414;2024-03-23T01:22:09;12.00;71.30
39103;DHT22;24847;48.218;16.414;2024-03-23T01:27:13;11.90;71.70
39103;DHT22;24847;48.218;16.414;2024-03-23T01:32:15;11.90;72.50
39103;DHT22;24847;48.218;16.414;2024-03-23T01:37:17;12.10;72.60
39103;DHT22;24847;48.218;16.414;2024-03-23T01:42:21;12.10;72.20
39103;DHT22;24847;48.218;16.414;2024-03-23T01:47:23;12.20;71.90
39103;DHT22;24847;48.218;16.414;2024-03-23T01:52:25;11.90;72.10
39103;DHT22;24847;48.218;16.414;2024-03-23T01:57:29;11.90;73.10
39103;DHT22;24847;48.218;16.414;2024-03-23T02:02:32;11.80;74.00
39103;DHT22;24847;48.218;16.414;2024-03-23T02:07:34;11.90;71.90
39103;DHT22;24847;48.218;16.414;2024-03-23T02:12:38;12.00;74.40
39103;DHT22;24847;48.218;16.414;2024-03-23T02:17:40;11.70;77.40
39103;DHT22;24847;48.218;16.414;2024-03-23T02:22:42;11.70;79.70
39103;DHT22;24847;48.218;16.414;2024-03-23T02:27:46;11.70;79.50
39103;DHT22;24847;48.218;16.414;2024-03-23T02:32:48;11.60;78.60
39103;DHT22;24847;48.218;16.414;2024-03-23T02:37:50;11.50;78.00
39103;DHT22;24847;48.218;16.414;2024-03-23T02:42:55;11.50;77.60
39103;DHT22;24847;48.218;16.414;2024-03-23T02:47:57;11.50;75.70
39103;DHT22;24847;48.218;16.414;2024-03-23T02:52:59;11.50;74.80
39103;DHT22;24847;48.218;16.414;2024-03-23T02:58:03;11.50;74.40
39103;DHT22;24847;48.218;16.414;2024-03-23T03:03:05;11.40;74.50
39103;DHT22;24847;48.218;16.414;2024-03-23T03:08:07;11.90;73.20
39103;DHT22;24847;48.218;16.414;2024-03-23T03:13:11;11.70;74.70
39103;DHT22;24847;48.218;16.414;2024-03-23T03:18:13;11.70;74.80
39103;DHT22;24847;48.218;16.414;2024-03-23T03:23:15;11.60;74.60
39103;DHT22;24847;48.218;16.414;2024-03-23T03:28:20;11.60;74.60
39103;DHT22;24847;48.218;16.414;2024-03-23T03:33:22;11.30;76.30
39103;DHT22;24847;48.218;16.414;2024-03-23T03:38:24;11.50;77.20
39103;DHT22;24847;48.218;16.414;2024-03-23T03:43:27;11.20;79.30
39103;DHT22;24847;48.218;16.414;2024-03-23T03:48:30;11.10;80.90
39103;DHT22;24847;48.218;16.414;2024-03-23T03:53:32;11.10;80.50
39103;DHT22;24847;48.218;16.414;2024-03-23T03:58:35;11.20;78.80
39103;DHT22;24847;48.218;16.414;2024-03-23T04:03:37;11.70;76.90
39103;DHT22;24847;48.218;16.414;2024-03-23T04:08:44;11.60;75.40
39103;DHT22;24847;48.218;16.414;2024-03-23T04:13:47;11.80;75.20
39103;DHT22;24847;48.218;16.414;2024-03-23T04:18:49;11.80;74.60
39103;DHT22;24847;48.218;16.414;2024-03-23T04:23:52;11.60;75.80
39103;DHT22;24847;48.218;16.414;2024-03-23T04:28:55;11.80;75.70
39103;DHT22;24847;48.218;16.414;2024-03-23T04:33:57;11.50;76.60
39103;DHT22;24847;48.218;16.414;2024-03-23T04:39:00;11.40;77.70
39103;DHT22;24847;48.218;16.414;2024-03-23T04:44:05;11.30;81.30
39103;DHT22;24847;48.218;16.414;2024-03-23T04:49:07;11.30;82.10
39103;DHT22;24847;48.218;16.414;2024-03-23T04:54:09;11.30;83.10
39103;DHT22;24847;48.218;16.414;2024-03-23T04:59:13;11.30;82.60
39103;DHT22;24847;48.218;16.414;2024-03-23T05:04:15;11.10;81.50
39103;DHT22;24847;48.218;16.414;2024-03-23T05:09:17;11.20;80.80
39103;DHT22;24847;48.218;16.414;2024-03-23T05:14:22;11.20;81.00
39103;DHT22;24847;48.218;16.414;2024-03-23T05:19:24;11.00;82.00
39103;DHT22;24847;48.218;16.414;2024-03-23T05:24:26;10.80;79.40
39103;DHT22;24847;48.218;16.414;2024-03-23T05:29:30;10.90;78.70
39103;DHT22;24847;48.218;16.414;2024-03-23T05:34:33;10.80;79.70
39103;DHT22;24847;48.218;16.414;2024-03-23T05:39:35;11.00;79.40
39103;DHT22;24847;48.218;16.414;2024-03-23T05:44:39;10.80;79.80
39103;DHT22;24847;48.218;16.414;2024-03-23T05:49:41;10.90;80.10
39103;DHT22;24847;48.218;16.414;2024-03-23T05:54:43;11.10;80.40
39103;DHT22;24847;48.218;16.414;2024-03-23T05:59:47;11.20;80.50
39103;DHT22;24847;48.218;16.414;2024-03-23T06:04:49;11.40;78.60
39103;DHT22;24847;48.218;16.414;2024-03-23T06:09:51;11.60;77.00
39103;DHT22;24847;48.218;16.414;2024-03-23T06:14:55;11.90;75.60
39103;DHT22;24847;48.218;16.414;2024-03-23T06:19:57;12.10;74.10
39103;DHT22;24847;48.218;16.414;2024-03-23T06:25:00;12.10;73.70
39103;DHT22;24847;48.218;16.414;2024-03-23T06:30:05;12.10;73.40
39103;DHT22;24847;48.218;16.414;2024-03-23T06:35:08;11.90;76.30
39103;DHT22;24847;48.218;16.414;2024-03-23T06:40:10;11.80;76.60
39103;DHT22;24847;48.218;16.414;2024-03-23T06:45:14;11.60;76.40
39103;DHT22;24847;48.218;16.414;2024-03-23T06:50:16;11.50;78.80
39103;DHT22;24847;48.218;16.414;2024-03-23T06:55:19;11.70;77.60
39103;DHT22;24847;48.218;16.414;2024-03-23T07:00:22;11.60;78.60
39103;DHT22;24847;48.218;16.414;2024-03-23T07:05:25;11.70;77.60
39103;DHT22;24847;48.218;16.414;2024-03-23T07:10:28;11.90;78.00
39103;DHT22;24847;48.218;16.414;2024-03-23T07:15:31;11.70;77.70
39103;DHT22;24847;48.218;16.414;2024-03-23T07:20:34;11.80;76.90
39103;DHT22;24847;48.218;16.414;2024-03-23T07:25:37;11.90;75.90
39103;DHT22;24847;48.218;16.414;2024-03-23T07:30:40;12.20;74.40
39103;DHT22;24847;48.218;16.414;2024-03-23T07:35:42;12.40;72.90
39103;DHT22;24847;48.218;16.414;2024-03-23T07:40:44;12.40;72.70
39103;DHT22;24847;48.218;16.414;2024-03-23T07:45:52;12.70;71.50
39103;DHT22;24847;48.218;16.414;2024-03-23T07:50:59;12.50;73.40
39103;DHT22;24847;48.218;16.414;2024-03-23T07:56:05;12.30;73.50
39103;DHT22;24847;48.218;16.414;2024-03-23T08:01:11;12.50;73.80
39103;DHT22;24847;48.218;16.414;2024-03-23T08:06:14;13.40;71.10
39103;DHT22;24847;48.218;16.414;2024-03-23T08:11:17;14.90;67.80
39103;DHT22;24847;48.218;16.414;2024-03-23T08:16:21;14.90;63.90
39103;DHT22;24847;48.218;16.414;2024-03-23T08:21:23;15.40;62.30
39103;DHT22;24847;48.218;16.414;2024-03-23T08:26:25;15.50;61.10
39103;DHT22;24847;48.218;16.414;2024-03-23T08:31:29;15.40;60.20
39103;DHT22;24847;48.218;16.414;2024-03-23T08:36:31;16.30;59.30
39103;DHT22;24847;48.218;16.414;2024-03-23T08:41:33;16.70;56.90
39103;DHT22;24847;48.218;16.414;2024-03-23T08:46:37;17.80;54.40
39103;DHT22;24847;48.218;16.414;2024-03-23T08:51:39;18.70;52.70
39103;DHT22;24847;48.218;16.414;2024-03-23T08:56:41;19.20;51.30
39103;DHT22;24847;48.218;16.414;2024-03-23T09:01:44;19.40;50.40
39103;DHT22;24847;48.218;16.414;2024-03-23T09:06:47;19.40;49.30
39103;DHT22;24847;48.218;16.414;2024-03-23T09:11:49;20.70;46.70
39103;DHT22;24847;48.218;16.414;2024-03-23T09:16:53;21.50;44.00
39103;DHT22;24847;48.218;16.414;2024-03-23T09:21:56;21.60;42.90
39103;DHT22;24847;48.218;16.414;2024-03-23T09:26:58;21.30;41.70
39103;DHT22;24847;48.218;16.414;2024-03-23T09:32:01;21.70;43.50
39103;DHT22;24847;48.218;16.414;2024-03-23T09:37:04;21.50;41.20
39103;DHT22;24847;48.218;16.414;2024-03-23T09:42:06;22.00;40.80
39103;DHT22;24847;48.218;16.414;2024-03-23T09:47:10;22.30;41.30
39103;DHT22;24847;48.218;16.414;2024-03-23T09:52:12;22.70;39.20
39103;DHT22;24847;48.218;16.414;2024-03-23T09:57:14;22.60;38.40
39103;DHT22;24847;48.218;16.414;2024-03-23T10:02:18;22.20;39.70
39103;DHT22;24847;48.218;16.414;2024-03-23T10:07:21;21.50;41.10
39103;DHT22;24847;48.218;16.414;2024-03-23T10:12:24;21.30;42.50
39103;DHT22;24847;48.218;16.414;2024-03-23T10:17:27;21.30;42.20
39103;DHT22;24847;48.218;16.414;2024-03-23T10:22:37;21.30;40.90
39103;DHT22;24847;48.218;16.414;2024-03-23T10:27:41;21.10;41.50
39103;DHT22;24847;48.218;16.414;2024-03-23T10:32:45;21.40;42.40
39103;DHT22;24847;48.218;16.414;2024-03-23T10:37:51;21.30;43.10
39103;DHT22;24847;48.218;16.414;2024-03-23T10:42:58;22.40;41.80
39103;DHT22;24847;48.218;16.414;2024-03-23T10:48:03;22.90;37.80
39103;DHT22;24847;48.218;16.414;2024-03-23T10:53:06;22.80;38.80
39103;DHT22;24847;48.218;16.414;2024-03-23T10:58:10;22.70;38.90
39103;DHT22;24847;48.218;16.414;2024-03-23T11:03:36;22.50;38.90
39103;DHT22;24847;48.218;16.414;2024-03-23T11:08:40;22.50;39.50
39103;DHT22;24847;48.218;16.414;2024-03-23T11:13:43;22.10;38.50
39103;DHT22;24847;48.218;16.414;2024-03-23T11:18:47;22.20;38.10
39103;DHT22;24847;48.218;16.414;2024-03-23T11:23:49;21.40;38.20
39103;DHT22;24847;48.218;16.414;2024-03-23T11:29:08;20.80;39.80
39103;DHT22;24847;48.218;16.414;2024-03-23T11:34:13;20.60;42.00
39103;DHT22;24847;48.218;16.414;2024-03-23T11:39:17;20.20;40.00
39103;DHT22;24847;48.218;16.414;2024-03-23T11:44:21;20.20;39.70
39103;DHT22;24847;48.218;16.414;2024-03-23T11:49:26;20.00;41.80
39103;DHT22;24847;48.218;16.414;2024-03-23T11:54:29;19.90;40.50
39103;DHT22;24847;48.218;16.414;2024-03-23T11:59:33;19.70;41.60
39103;DHT22;24847;48.218;16.414;2024-03-23T12:04:37;19.90;42.30
39103;DHT22;24847;48.218;16.414;2024-03-23T12:09:40;19.60;43.00
39103;DHT22;24847;48.218;16.414;2024-03-23T12:14:43;19.40;43.20
39103;DHT22;24847;48.218;16.414;2024-03-23T12:19:48;19.40;42.40
39103;DHT22;24847;48.218;16.414;2024-03-23T12:24:50;19.40;43.30
39103;DHT22;24847;48.218;16.414;2024-03-23T12:29:53;19.10;43.10
39103;DHT22;24847;48.218;16.414;2024-03-23T12:34:56;18.90;43.60
39103;DHT22;24847;48.218;16.414;2024-03-23T12:40:06;19.10;43.70
39103;DHT22;24847;48.218;16.414;2024-03-23T12:45:09;19.30;43.40
39103;DHT22;24847;48.218;16.414;2024-03-23T12:50:13;18.80;48.10
39103;DHT22;24847;48.218;16.414;2024-03-23T12:55:15;18.60;49.20
39103;DHT22;24847;48.218;16.414;2024-03-23T13:00:18;18.70;45.40
39103;DHT22;24847;48.218;16.414;2024-03-23T13:05:22;18.60;45.50
39103;DHT22;24847;48.218;16.414;2024-03-23T13:10:24;18.10;50.90
39103;DHT22;24847;48.218;16.414;2024-03-23T13:15:26;17.40;54.70
39103;DHT22;24847;48.218;16.414;2024-03-23T13:20:30;16.30;57.30
39103;DHT22;24847;48.218;16.414;2024-03-23T13:25:32;16.20;57.50
39103;DHT22;24847;48.218;16.414;2024-03-23T13:30:34;16.60;56.50
39103;DHT22;24847;48.218;16.414;2024-03-23T13:35:38;15.90;59.80
39103;DHT22;24847;48.218;16.414;2024-03-23T13:40:49;15.90;62.50
39103;DHT22;24847;48.218;16.414;2024-03-23T13:45:56;15.40;65.40
39103;DHT22;24847;48.218;16.414;2024-03-23T13:51:02;15.40;65.60
39103;DHT22;24847;48.218;16.414;2024-03-23T13:56:05;15.10;65.40
39103;DHT22;24847;48.218;16.414;2024-03-23T14:01:07;14.90;66.10
39103;DHT22;24847;48.218;16.414;2024-03-23T14:06:11;14.10;68.00
39103;DHT22;24847;48.218;16.414;2024-03-23T14:11:13;14.20;69.10
39103;DHT22;24847;48.218;16.414;2024-03-23T14:16:15;14.10;70.20
39103;DHT22;24847;48.218;16.414;2024-03-23T14:21:19;14.10;68.70
39103;DHT22;24847;48.218;16.414;2024-03-23T14:26:21;13.70;69.10
39103;DHT22;24847;48.218;16.414;2024-03-23T14:31:24;13.40;69.30
39103;DHT22;24847;48.218;16.414;2024-03-23T14:36:28;13.10;72.20
39103;DHT22;24847;48.218;16.414;2024-03-23T14:41:30;12.90;73.00
39103;DHT22;24847;48.218;16.414;2024-03-23T14:46:32;12.40;73.00
39103;DHT22;24847;48.218;16.414;2024-03-23T14:51:36;12.40;73.40
39103;DHT22;24847;48.218;16.414;2024-03-23T14:56:38;12.30;72.30
39103;DHT22;24847;48.218;16.414;2024-03-23T15:01:40;12.00;71.50
39103;DHT22;24847;48.218;16.414;2024-03-23T15:06:44;12.20;72.90
39103;DHT22;24847;48.218;16.414;2024-03-23T15:11:47;12.20;72.20
39103;DHT22;24847;48.218;16.414;2024-03-23T15:16:49;11.70;71.80
39103;DHT22;24847;48.218;16.414;2024-03-23T15:21:54;11.30;74.20
39103;DHT22;24847;48.218;16.414;2024-03-23T15:26:57;11.10;73.70
39103;DHT22;24847;48.218;16.414;2024-03-23T15:31:59;11.00;74.60
39103;DHT22;24847;48.218;16.414;2024-03-23T15:37:03;11.10;74.40
39103;DHT22;24847;48.218;16.414;2024-03-23T15:42:06;10.70;76.30
39103;DHT22;24847;48.218;16.414;2024-03-23T15:47:08;10.60;78.30
39103;DHT22;24847;48.218;16.414;2024-03-23T15:52:13;10.10;78.60
39103;DHT22;24847;48.218;16.414;2024-03-23T15:57:15;10.60;77.10
39103;DHT22;24847;48.218;16.414;2024-03-23T16:02:17;11.00;75.40
39103;DHT22;24847;48.218;16.414;2024-03-23T16:07:21;10.90;73.60
39103;DHT22;24847;48.218;16.414;2024-03-23T16:12:23;11.10;71.00
39103;DHT22;24847;48.218;16.414;2024-03-23T16:17:25;11.10;68.20
39103;DHT22;24847;48.218;16.414;2024-03-23T16:22:29;11.40;66.40
39103;DHT22;24847;48.218;16.414;2024-03-23T16:27:31;11.10;66.10
39103;DHT22;24847;48.218;16.414;2024-03-23T16:32:33;11.00;65.70
39103;DHT22;24847;48.218;16.414;2024-03-23T16:37:39;10.50;65.20
39103;DHT22;24847;48.218;16.414;2024-03-23T16:42:41;10.70;64.60
39103;DHT22;24847;48.218;16.414;2024-03-23T16:47:43;11.00;64.70
39103;DHT22;24847;48.218;16.414;2024-03-23T16:52:48;10.40;66.30
39103;DHT22;24847;48.218;16.414;2024-03-23T16:57:50;10.30;66.20
39103;DHT22;24847;48.218;16.414;2024-03-23T17:02:53;10.50;67.10
39103;DHT22;24847;48.218;16.414;2024-03-23T17:07:56;10.50;67.00
39103;DHT22;24847;48.218;16.414;2024-03-23T17:12:59;10.30;68.80
39103;DHT22;24847;48.218;16.414;2024-03-23T17:18:01;10.50;67.10
39103;DHT22;24847;48.218;16.414;2024-03-23T17:23:05;10.90;66.20
39103;DHT22;24847;48.218;16.414;2024-03-23T17:28:07;10.40;67.60
39103;DHT22;24847;48.218;16.414;2024-03-23T17:33:13;10.70;66.60
39103;DHT22;24847;48.218;16.414;2024-03-23T17:38:16;10.50;67.50
39103;DHT22;24847;48.218;16.414;2024-03-23T17:43:20;10.60;67.20
39103;DHT22;24847;48.218;16.414;2024-03-23T17:48:22;10.50;67.60
39103;DHT22;24847;48.218;16.414;2024-03-23T17:53:25;10.70;67.10
39103;DHT22;24847;48.218;16.414;2024-03-23T17:58:27;11.00;67.10
39103;DHT22;24847;48.218;16.414;2024-03-23T18:03:29;10.60;66.10
39103;DHT22;24847;48.218;16.414;2024-03-23T18:08:33;10.80;65.70
39103;DHT22;24847;48.218;16.414;2024-03-23T18:13:36;10.70;66.30
39103;DHT22;24847;48.218;16.414;2024-03-23T18:18:39;10.70;66.30
39103;DHT22;24847;48.218;16.414;2024-03-23T18:23:45;10.80;65.20
39103;DHT22;24847;48.218;16.414;2024-03-23T18:28:49;10.70;66.10
39103;DHT22;24847;48.218;16.414;2024-03-23T18:33:52;10.30;67.30
39103;DHT22;24847;48.218;16.414;2024-03-23T18:38:56;10.50;66.50
39103;DHT22;24847;48.218;16.414;2024-03-23T18:43:58;10.50;65.50
39103;DHT22;24847;48.218;16.414;2024-03-23T18:49:01;10.70;65.80
39103;DHT22;24847;48.218;16.414;2024-03-23T18:54:06;10.30;65.30
39103;DHT22;24847;48.218;16.414;2024-03-23T18:59:08;10.20;66.60
39103;DHT22;24847;48.218;16.414;2024-03-23T19:04:10;10.30;67.00
39103;DHT22;24847;48.218;16.414;2024-03-23T19:09:15;10.50;66.50
39103;DHT22;24847;48.218;16.414;2024-03-23T19:14:17;10.60;66.10
39103;DHT22;24847;48.218;16.414;2024-03-23T19:19:19;10.40;66.20
39103;DHT22;24847;48.218;16.414;2024-03-23T19:24:23;10.40;66.30
39103;DHT22;24847;48.218;16.414;2024-03-23T19:29:25;10.00;67.30
39103;DHT22;24847;48.218;16.414;2024-03-23T19:34:27;9.90;68.10
39103;DHT22;24847;48.218;16.414;2024-03-23T19:39:31;9.90;67.40
39103;DHT22;24847;48.218;16.414;2024-03-23T19:44:34;9.70;68.50
39103;DHT22;24847;48.218;16.414;2024-03-23T19:49:36;9.80;67.30
39103;DHT22;24847;48.218;16.414;2024-03-23T19:54:40;9.70;67.30
39103;DHT22;24847;48.218;16.414;2024-03-23T19:59:42;9.70;66.50
39103;DHT22;24847;48.218;16.414;2024-03-23T20:04:45;9.70;66.60
39103;DHT22;24847;48.218;16.414;2024-03-23T20:09:50;9.60;67.30
39103;DHT22;24847;48.218;16.414;2024-03-23T20:14:52;9.60;67.10
39103;DHT22;24847;48.218;16.414;2024-03-23T20:19:55;9.50;67.30
39103;DHT22;24847;48.218;16.414;2024-03-23T20:24:58;9.10;68.70
39103;DHT22;24847;48.218;16.414;2024-03-23T20:30:16;9.10;68.90
39103;DHT22;24847;48.218;16.414;2024-03-23T20:35:19;9.00;68.80
39103;DHT22;24847;48.218;16.414;2024-03-23T20:40:22;9.50;67.10
39103;DHT22;24847;48.218;16.414;2024-03-23T20:45:25;9.30;68.40
39103;DHT22;24847;48.218;16.414;2024-03-23T20:50:27;9.40;67.30
39103;DHT22;24847;48.218;16.414;2024-03-23T20:55:30;9.40;67.30
39103;DHT22;24847;48.218;16.414;2024-03-23T21:00:33;9.20;66.70
39103;DHT22;24847;48.218;16.414;2024-03-23T21:05:36;9.10;66.90
39103;DHT22;24847;48.218;16.414;2024-03-23T21:10:40;8.80;67.40
39103;DHT22;24847;48.218;16.414;2024-03-23T21:15:50;8.90;66.10
39103;DHT22;24847;48.218;16.414;2024-03-23T21:20:54;8.90;66.80
39103;DHT22;24847;48.218;16.414;2024-03-23T21:26:00;8.90;66.00
39103;DHT22;24847;48.218;16.414;2024-03-23T21:31:03;9.00;66.10
39103;DHT22;24847;48.218;16.414;2024-03-23T21:36:06;9.00;66.00
39103;DHT22;24847;48.218;16.414;2024-03-23T21:41:10;8.80;66.30
39103;DHT22;24847;48.218;16.414;2024-03-23T21:46:12;8.90;66.10
39103;DHT22;24847;48.218;16.414;2024-03-23T21:51:14;8.70;65.60
39103;DHT22;24847;48.218;16.414;2024-03-23T21:56:19;8.70;66.20
39103;DHT22;24847;48.218;16.414;2024-03-23T22:01:22;8.50;67.70
39103;DHT22;24847;48.218;16.414;2024-03-23T22:06:24;8.70;66.20
39103;DHT22;24847;48.218;16.414;2024-03-23T22:11:27;8.40;68.00
39103;DHT22;24847;48.218;16.414;2024-03-23T22:16:29;8.30;67.80
39103;DHT22;24847;48.218;16.414;2024-03-23T22:21:32;8.20;68.40
39103;DHT22;24847;48.218;16.414;2024-03-23T22:26:35;8.30;67.90
39103;DHT22;24847;48.218;16.414;2024-03-23T22:31:38;8.30;68.40
39103;DHT22;24847;48.218;16.414;2024-03-23T22:36:40;8.10;68.50
39103;DHT22;24847;48.218;16.414;2024-03-23T22:41:43;8.20;69.10
39103;DHT22;24847;48.218;16.414;2024-03-23T22:46:46;8.10;68.90
39103;DHT22;24847;48.218;16.414;2024-03-23T22:51:48;8.40;68.00
39103;DHT22;24847;48.218;16.414;2024-03-23T22:56:51;8.40;67.20
39103;DHT22;24847;48.218;16.414;2024-03-23T23:01:54;8.20;67.40
39103;DHT22;24847;48.218;16.414;2024-03-23T23:06:56;8.20;67.20
39103;DHT22;24847;48.218;16.414;2024-03-23T23:11:59;7.90;67.30
39103;DHT22;24847;48.218;16.414;2024-03-23T23:17:01;7.90;67.50
39103;DHT22;24847;48.218;16.414;2024-03-23T23:22:04;7.90;66.80
39103;DHT22;24847;48.218;16.414;2024-03-23T23:27:07;7.80;66.90
39103;DHT22;24847;48.218;16.414;2024-03-23T23:32:09;7.80;66.50
39103;DHT22;24847;48.218;16.414;2024-03-23T23:37:11;7.70;67.50
39103;DHT22;24847;48.218;16.414;2024-03-23T23:42:15;7.50;67.50
39103;DHT22;24847;48.218;16.414;2024-03-23T23:47:17;7.50;67.90
39103;DHT22;24847;48.218;16.414;2024-03-23T23:52:19;7.30;69.10
39103;DHT22;24847;48.218;16.414;2024-03-23T23:57:23;7.60;68.30
